createdAt,value
2023-01-05T00:01:54.874Z,6.84
2023-01-05T00:04:25.323Z,6.88
2023-01-05T00:06:54.192Z,6.92
2023-01-05T00:09:22.932Z,6.95
2023-01-05T00:12:01.721Z,6.97
2023-01-05T00:14:42.292Z,6.98
2023-01-05T00:17:23.336Z,7.00
2023-01-05T00:20:02.583Z,7.00
2023-01-05T00:22:35.358Z,7.02
2023-01-05T00:25:12.236Z,7.01
2023-01-05T00:27:43.642Z,6.95
2023-01-05T00:30:14.049Z,6.99
2023-01-05T00:32:44.944Z,6.99
2023-01-05T00:35:17.020Z,6.99
2023-01-05T00:37:46.727Z,7.01
2023-01-05T00:40:16.449Z,7.04
2023-01-05T00:42:45.062Z,7.06
2023-01-05T00:45:16.057Z,7.06
2023-01-05T00:47:45.745Z,7.09
2023-01-05T00:50:18.656Z,7.10
2023-01-05T00:52:48.070Z,7.13
2023-01-05T00:55:16.742Z,7.14
2023-01-05T00:57:46.581Z,7.14
2023-01-05T01:00:18.682Z,7.14
2023-01-05T01:02:48.127Z,7.16
2023-01-05T01:05:18.496Z,7.18
2023-01-05T01:07:48.946Z,7.16
2023-01-05T01:10:17.714Z,7.16
2023-01-05T01:12:46.446Z,7.14
2023-01-05T01:15:15.465Z,7.16
2023-01-05T01:17:44.167Z,7.15
2023-01-05T01:20:13.264Z,7.13
2023-01-05T01:22:43.445Z,7.14
2023-01-05T01:25:12.273Z,7.13
2023-01-05T01:27:41.133Z,7.14
2023-01-05T01:30:11.468Z,7.13
2023-01-05T01:32:40.321Z,7.16
2023-01-05T01:35:09.806Z,7.16
2023-01-05T01:37:38.719Z,7.17
2023-01-05T01:40:10.933Z,7.17
2023-01-05T01:42:41.657Z,7.18
2023-01-05T01:45:20.149Z,7.15
2023-01-05T01:47:54.703Z,7.19
2023-01-05T01:50:29.240Z,7.17
2023-01-05T01:53:01.628Z,7.15
2023-01-05T01:55:33.120Z,7.16
2023-01-05T01:58:04.625Z,7.16
2023-01-05T02:00:33.453Z,7.14
2023-01-05T02:03:02.453Z,7.13
2023-01-05T02:05:32.744Z,7.13
2023-01-05T02:08:02.184Z,7.12
2023-01-05T02:10:50.784Z,7.14
2023-01-05T02:13:31.639Z,7.15
2023-01-05T02:16:14.364Z,7.18
2023-01-05T02:19:02.795Z,7.22
2023-01-05T02:21:52.067Z,7.24
2023-01-05T02:24:44.627Z,7.28
2023-01-05T02:27:32.709Z,7.31
2023-01-05T02:30:32.541Z,7.35
2023-01-05T02:33:16.130Z,7.38
2023-01-05T02:35:56.077Z,7.44
2023-01-05T02:38:34.848Z,7.48
2023-01-05T02:41:12.810Z,7.49
2023-01-05T02:43:44.615Z,7.53
2023-01-05T02:46:13.393Z,7.55
2023-01-05T02:48:44.761Z,7.55
2023-01-05T02:51:18.218Z,7.59
2023-01-05T02:53:51.839Z,7.58
2023-01-05T02:56:26.410Z,7.60
2023-01-05T02:58:59.922Z,7.61
2023-01-05T03:01:35.551Z,7.61
2023-01-05T03:04:09.837Z,7.59
2023-01-05T03:06:47.241Z,7.61
2023-01-05T03:09:26.185Z,7.59
2023-01-05T03:12:12.602Z,7.60
2023-01-05T03:14:47.947Z,7.52
2023-01-05T03:17:22.108Z,7.60
2023-01-05T03:19:56.295Z,7.59
2023-01-05T03:22:39.505Z,7.59
2023-01-05T03:25:21.175Z,7.60
2023-01-05T03:28:01.221Z,7.58
2023-01-05T03:30:48.444Z,7.58
2023-01-05T03:33:34.429Z,7.56
2023-01-05T03:36:07.845Z,7.51
2023-01-05T03:38:41.830Z,7.54
2023-01-05T03:41:15.174Z,7.51
2023-01-05T03:43:44.697Z,7.50
2023-01-05T03:46:18.265Z,7.49
2023-01-05T03:48:47.957Z,7.40
2023-01-05T03:51:20.997Z,7.52
2023-01-05T03:53:49.788Z,7.49
2023-01-05T03:56:18.503Z,7.49
2023-01-05T03:58:47.468Z,7.50
2023-01-05T04:01:16.671Z,7.53
2023-01-05T04:03:45.699Z,7.54
2023-01-05T04:06:14.599Z,7.58
2023-01-05T04:08:44.856Z,7.65
2023-01-05T04:11:16.695Z,7.69
2023-01-05T04:13:51.391Z,7.73
2023-01-05T04:16:20.939Z,7.75
2023-01-05T04:18:51.966Z,7.73
2023-01-05T04:21:24.155Z,7.72
2023-01-05T04:23:57.209Z,7.70
2023-01-05T04:26:26.746Z,7.69
2023-01-05T04:28:55.592Z,7.66
2023-01-05T04:31:27.197Z,7.66
2023-01-05T04:33:58.236Z,7.66
2023-01-05T04:36:28.963Z,7.69
2023-01-05T04:39:01.421Z,7.70
2023-01-05T04:41:32.192Z,7.70
2023-01-05T04:44:01.096Z,7.72
2023-01-05T04:46:30.374Z,7.76
2023-01-05T04:49:00.348Z,7.78
2023-01-05T04:51:29.253Z,7.78
2023-01-05T04:53:58.103Z,7.77
2023-01-05T04:56:29.109Z,7.75
2023-01-05T04:58:58.005Z,7.68
2023-01-05T05:01:26.790Z,7.66
2023-01-05T05:03:57.716Z,7.67
2023-01-05T05:06:28.019Z,7.66
2023-01-05T05:08:58.429Z,7.71
2023-01-05T05:11:29.835Z,7.78
2023-01-05T05:13:58.992Z,7.78
2023-01-05T05:16:27.826Z,7.83
2023-01-05T05:18:57.885Z,7.86
2023-01-05T05:21:29.274Z,7.89
2023-01-05T05:23:58.265Z,7.93
2023-01-05T05:26:27.100Z,7.93
2023-01-05T05:28:59.311Z,7.87
2023-01-05T05:31:28.183Z,7.84
2023-01-05T05:33:56.942Z,7.83
2023-01-05T05:36:26.177Z,7.76
2023-01-05T05:38:54.939Z,7.84
2023-01-05T05:41:23.809Z,7.93
2023-01-05T05:43:52.689Z,7.98
2023-01-05T05:46:22.897Z,8.05
2023-01-05T05:48:51.598Z,8.15
2023-01-05T05:51:20.326Z,8.23
2023-01-05T05:53:49.091Z,8.25
2023-01-05T05:56:17.838Z,8.21
2023-01-05T05:58:47.042Z,8.21
2023-01-05T06:01:15.782Z,8.16
2023-01-05T06:03:46.185Z,8.09
2023-01-05T06:06:15.055Z,8.06
2023-01-05T06:08:43.818Z,8.00
2023-01-05T06:11:12.658Z,8.05
2023-01-05T06:13:41.610Z,8.07
2023-01-05T06:16:11.092Z,8.09
2023-01-05T06:18:39.843Z,8.10
2023-01-05T06:21:10.417Z,8.03
2023-01-05T06:23:39.275Z,7.97
2023-01-05T06:26:07.982Z,7.90
2023-01-05T06:28:37.219Z,7.92
2023-01-05T06:31:06.129Z,8.01
2023-01-05T06:33:34.915Z,8.13
2023-01-05T06:36:03.676Z,8.33
2023-01-05T06:38:33.968Z,8.46
2023-01-05T06:41:02.853Z,8.50
2023-01-05T06:43:32.145Z,8.47
2023-01-05T06:46:01.034Z,8.46
2023-01-05T06:48:29.806Z,8.47
2023-01-05T06:50:58.587Z,8.49
2023-01-05T06:53:27.388Z,8.52
2023-01-05T06:55:57.683Z,8.53
2023-01-05T06:58:26.541Z,8.52
2023-01-05T07:00:55.436Z,8.50
2023-01-05T07:03:25.315Z,8.42
2023-01-05T07:05:54.055Z,8.46
2023-01-05T07:08:22.970Z,8.44
2023-01-05T07:10:51.670Z,8.42
2023-01-05T07:13:21.984Z,8.42
2023-01-05T07:15:50.773Z,8.39
2023-01-05T07:18:19.454Z,8.36
2023-01-05T07:20:48.889Z,8.33
2023-01-05T07:23:17.690Z,8.28
2023-01-05T07:25:46.676Z,8.26
2023-01-05T07:28:15.396Z,8.24
2023-01-05T07:30:45.541Z,8.21
2023-01-05T07:33:14.160Z,8.20
2023-01-05T07:35:42.948Z,8.17
2023-01-05T07:38:11.681Z,8.19
2023-01-05T07:40:40.444Z,8.21
2023-01-05T07:43:09.304Z,8.20
2023-01-05T07:45:38.256Z,8.20
2023-01-05T07:48:08.634Z,8.18
2023-01-05T07:50:37.438Z,8.17
2023-01-05T07:53:06.187Z,8.17
2023-01-05T07:55:35.009Z,8.19
2023-01-05T07:58:03.730Z,8.18
2023-01-05T08:00:32.500Z,8.19
2023-01-05T08:03:01.180Z,8.18
2023-01-05T08:05:34.968Z,8.21
2023-01-05T08:08:04.014Z,8.27
2023-01-05T08:10:31.567Z,8.28
2023-01-05T08:13:13.444Z,8.31
2023-01-05T08:15:46.145Z,8.30
2023-01-05T08:18:19.696Z,8.32
2023-01-05T08:20:54.205Z,8.33
2023-01-05T08:23:25.163Z,8.37
2023-01-05T08:25:54.561Z,8.36
2023-01-05T08:28:23.309Z,8.45
2023-01-05T08:30:52.580Z,8.48
2023-01-05T08:33:21.208Z,8.56
2023-01-05T08:35:49.967Z,8.53
2023-01-05T08:38:22.899Z,8.52
2023-01-05T08:40:51.907Z,8.60
2023-01-05T08:43:20.830Z,8.68
2023-01-05T08:45:50.663Z,8.76
2023-01-05T08:48:19.941Z,8.78
2023-01-05T08:50:48.709Z,8.78
2023-01-05T08:53:17.579Z,8.86
2023-01-05T08:55:47.628Z,8.91
2023-01-05T08:58:16.448Z,8.94
2023-01-05T09:00:45.282Z,8.96
2023-01-05T09:03:13.989Z,8.96
2023-01-05T09:05:42.736Z,8.98
2023-01-05T09:08:11.901Z,9.07
2023-01-05T09:10:40.684Z,9.15
2023-01-05T09:13:12.353Z,9.22
2023-01-05T09:15:41.045Z,9.31
2023-01-05T09:18:09.848Z,9.40
2023-01-05T09:20:40.186Z,9.49
2023-01-05T09:23:09.120Z,9.55
2023-01-05T09:25:40.430Z,9.63
2023-01-05T09:28:10.570Z,9.65
2023-01-05T09:30:44.372Z,9.67
2023-01-05T09:33:19.209Z,9.69
2023-01-05T09:35:54.971Z,9.73
2023-01-05T09:38:24.061Z,9.72
2023-01-05T09:40:56.826Z,9.78
2023-01-05T09:43:31.001Z,9.80
2023-01-05T09:46:00.949Z,9.84
2023-01-05T09:48:38.382Z,9.87
2023-01-05T09:51:08.602Z,9.88
2023-01-05T09:53:38.661Z,9.89
2023-01-05T09:56:08.636Z,9.92
2023-01-05T09:58:44.107Z,9.95
2023-01-05T10:01:16.921Z,9.99
2023-01-05T10:04:05.096Z,10.04
2023-01-05T10:06:38.363Z,10.05
2023-01-05T10:09:09.760Z,10.04
2023-01-05T10:11:56.513Z,10.03
2023-01-05T10:14:33.515Z,10.05
2023-01-05T10:17:39.216Z,10.07
2023-01-05T10:19:55.230Z,10.12
2023-01-05T10:22:39.081Z,10.13
2023-01-05T10:25:16.734Z,10.11
2023-01-05T10:27:56.348Z,10.11
2023-01-05T10:30:36.803Z,10.12
2023-01-05T10:33:39.556Z,10.12
2023-01-05T10:36:12.993Z,10.13
2023-01-05T10:38:55.348Z,10.16
2023-01-05T10:41:32.742Z,10.17
2023-01-05T10:44:23.795Z,10.17
2023-01-05T10:46:54.239Z,10.20
2023-01-05T10:49:28.128Z,10.20
2023-01-05T10:52:00.726Z,10.24
2023-01-05T10:54:38.059Z,10.28
2023-01-05T10:57:42.458Z,10.31
2023-01-05T11:00:15.175Z,10.37
2023-01-05T11:02:51.072Z,10.42
2023-01-05T11:05:28.239Z,10.44
2023-01-05T11:08:00.394Z,10.47
2023-01-05T11:10:32.446Z,10.51
2023-01-05T11:13:07.855Z,10.52
2023-01-05T11:15:43.389Z,10.54
2023-01-05T11:18:27.375Z,10.60
2023-01-05T11:21:15.276Z,10.63
2023-01-05T11:23:47.021Z,10.66
2023-01-05T11:26:26.740Z,10.67
2023-01-05T11:29:03.282Z,10.68
2023-01-05T11:31:38.061Z,10.69
2023-01-05T11:34:18.353Z,10.70
2023-01-05T11:36:55.007Z,10.70
2023-01-05T11:39:30.494Z,10.74
2023-01-05T11:42:12.933Z,10.76
2023-01-05T11:44:45.618Z,10.78
2023-01-05T11:47:24.267Z,10.82
2023-01-05T11:50:08.453Z,10.84
2023-01-05T11:52:40.514Z,10.82
2023-01-05T11:55:32.174Z,10.85
2023-01-05T11:58:18.277Z,10.85
2023-01-05T12:01:08.788Z,10.84
2023-01-05T12:04:01.532Z,10.82
2023-01-05T12:06:52.440Z,10.85
2023-01-05T12:09:34.138Z,11.09
2023-01-05T12:12:26.121Z,11.32
2023-01-05T12:15:13.976Z,11.80
2023-01-05T12:17:53.480Z,12.18
2023-01-05T12:20:44.859Z,12.74
2023-01-05T12:23:43.405Z,13.54
2023-01-05T12:26:20.649Z,13.80
2023-01-05T12:30:43.329Z,14.16
2023-01-05T12:35:43.260Z,14.77
2023-01-05T12:38:44.446Z,15.01
2023-01-05T12:41:37.901Z,15.22
2023-01-05T12:44:36.349Z,15.22
2023-01-05T12:47:19.279Z,15.28
2023-01-05T12:49:52.802Z,15.08
2023-01-05T12:52:28.234Z,14.54
2023-01-05T12:55:03.811Z,14.07
2023-01-05T12:57:38.402Z,13.49
2023-01-05T13:00:12.122Z,13.13
2023-01-05T13:02:45.226Z,12.98
2023-01-05T13:05:21.299Z,12.83
2023-01-05T13:07:55.702Z,12.61
2023-01-05T13:10:31.004Z,12.42
2023-01-05T13:13:06.445Z,12.28
2023-01-05T13:15:42.421Z,12.15
2023-01-05T13:18:16.979Z,12.04
2023-01-05T13:20:51.645Z,11.97
2023-01-05T13:23:24.704Z,11.92
2023-01-05T13:25:58.906Z,11.88
2023-01-05T13:28:31.347Z,11.83
2023-01-05T13:31:29.135Z,11.72
2023-01-05T13:34:34.817Z,11.67
2023-01-05T13:37:21.242Z,11.60
2023-01-05T13:40:06.209Z,11.57
2023-01-05T13:46:04.138Z,11.48
2023-01-05T13:49:03.797Z,11.45
2023-01-05T13:51:55.873Z,11.41
2023-01-05T13:54:48.945Z,11.36
2023-01-05T13:57:29.018Z,11.28
2023-01-05T14:00:07.378Z,11.19
2023-01-05T14:02:48.480Z,11.18
2023-01-05T14:05:27.667Z,11.08
2023-01-05T14:07:58.579Z,11.05
2023-01-05T14:10:31.502Z,10.99
2023-01-05T14:13:00.414Z,10.95
2023-01-05T14:15:39.906Z,10.91
2023-01-05T14:18:10.741Z,10.87
2023-01-05T14:20:49.388Z,10.82
2023-01-05T14:23:40.108Z,10.78
2023-01-05T14:26:10.097Z,10.72
2023-01-05T14:28:49.427Z,10.72
2023-01-05T14:31:38.432Z,10.70
2023-01-05T14:34:15.844Z,10.66
2023-01-05T14:36:48.929Z,10.64
2023-01-05T14:39:30.016Z,10.60
2023-01-05T14:42:03.828Z,10.54
2023-01-05T14:44:37.549Z,10.54
2023-01-05T14:47:07.297Z,10.60
2023-01-05T14:49:40.300Z,10.58
2023-01-05T14:52:18.006Z,10.56
2023-01-05T14:55:21.721Z,10.52
2023-01-05T14:57:58.307Z,10.41
2023-01-05T15:00:37.900Z,10.45
2023-01-05T15:03:12.819Z,10.41
2023-01-05T15:05:49.280Z,10.40
2023-01-05T15:08:33.417Z,10.41
2023-01-05T15:11:26.558Z,10.39
2023-01-05T15:14:31.227Z,10.35
2023-01-05T15:17:29.067Z,10.30
2023-01-05T15:20:29.299Z,10.25
2023-01-05T15:23:12.950Z,10.16
2023-01-05T15:26:09.058Z,10.13
2023-01-05T15:31:40.179Z,9.92
2023-01-05T15:34:21.062Z,9.91
2023-01-05T15:37:02.559Z,9.91
2023-01-05T15:39:46.001Z,9.88
2023-01-05T15:42:21.138Z,9.92
2023-01-05T15:44:53.239Z,9.99
2023-01-05T15:47:24.517Z,9.99
2023-01-05T15:49:58.357Z,9.98
2023-01-05T15:52:37.547Z,10.00
2023-01-05T15:55:15.902Z,10.07
2023-01-05T15:57:53.821Z,10.08
2023-01-05T16:00:26.280Z,10.03
2023-01-05T16:02:55.391Z,9.95
2023-01-05T16:05:26.651Z,9.93
2023-01-05T16:07:58.743Z,9.93
2023-01-05T16:10:37.491Z,9.93
2023-01-05T16:13:13.988Z,9.95
2023-01-05T16:15:45.468Z,9.93
2023-01-05T16:18:18.042Z,9.88
2023-01-05T16:20:50.510Z,9.88
2023-01-05T16:23:25.746Z,9.82
2023-01-05T16:25:59.377Z,9.79
2023-01-05T16:28:28.656Z,9.82
2023-01-05T16:30:57.677Z,9.86
2023-01-05T16:33:35.204Z,9.89
2023-01-05T16:36:20.202Z,9.94
2023-01-05T16:38:49.554Z,9.96
2023-01-05T16:41:27.348Z,9.99
2023-01-05T16:43:58.600Z,10.04
2023-01-05T16:46:37.915Z,10.05
2023-01-05T16:49:28.588Z,10.07
2023-01-05T16:51:58.628Z,10.05
2023-01-05T16:54:37.136Z,10.07
2023-01-05T16:57:36.073Z,10.09
2023-01-05T17:00:18.276Z,10.11
2023-01-05T17:02:49.341Z,10.13
2023-01-05T17:05:20.915Z,10.07
2023-01-05T17:07:53.860Z,10.04
2023-01-05T17:10:26.238Z,10.03
2023-01-05T17:13:03.431Z,10.02
2023-01-05T17:15:35.671Z,10.03
2023-01-05T17:18:16.258Z,10.03
2023-01-05T17:20:46.815Z,10.03
2023-01-05T17:23:21.770Z,10.03
2023-01-05T17:28:26.697Z,10.07
2023-01-05T17:30:55.716Z,10.07
2023-01-05T17:33:24.581Z,10.08
2023-01-05T17:35:53.715Z,10.08
2023-01-05T17:38:22.747Z,10.08
2023-01-05T17:40:51.845Z,10.06
2023-01-05T17:43:21.382Z,10.05
2023-01-05T17:45:53.271Z,10.02
2023-01-05T17:48:23.061Z,10.06
2023-01-05T17:50:53.071Z,10.02
2023-01-05T17:53:23.517Z,10.02
2023-01-05T17:55:52.574Z,10.03
2023-01-05T17:58:21.365Z,10.04
2023-01-05T18:00:51.544Z,10.02
2023-01-05T18:03:22.672Z,10.00
2023-01-05T18:05:53.669Z,10.01
2023-01-05T18:08:23.207Z,9.97
2023-01-05T18:10:51.724Z,9.96
2023-01-05T18:13:22.612Z,9.90
2023-01-05T18:15:53.550Z,9.86
2023-01-05T18:18:22.538Z,9.90
2023-01-05T18:20:51.808Z,9.93
2023-01-05T18:23:21.752Z,9.95
2023-01-05T18:25:50.562Z,9.96
2023-01-05T18:28:19.467Z,9.94
2023-01-05T18:30:48.677Z,9.94
2023-01-05T18:33:18.881Z,9.95
2023-01-05T18:35:50.436Z,9.90
2023-01-05T18:38:19.651Z,9.87
2023-01-05T18:40:50.318Z,9.83
2023-01-05T18:43:19.133Z,9.85
2023-01-05T18:45:47.813Z,9.84
2023-01-05T18:48:16.646Z,9.80
2023-01-05T18:50:51.723Z,9.72
2023-01-05T18:53:21.710Z,9.60
2023-01-05T18:55:51.122Z,9.54
2023-01-05T18:58:19.981Z,9.55
2023-01-05T19:00:49.163Z,9.58
2023-01-05T19:03:18.033Z,9.55
2023-01-05T19:05:48.146Z,9.51
2023-01-05T19:08:16.981Z,9.52
2023-01-05T19:10:45.717Z,9.56
2023-01-05T19:13:14.474Z,9.59
2023-01-05T19:15:43.212Z,9.59
2023-01-05T19:18:12.047Z,9.57
2023-01-05T19:20:40.706Z,9.54
2023-01-05T19:23:10.946Z,9.53
2023-01-05T19:25:39.762Z,9.52
2023-01-05T19:28:10.300Z,9.53
2023-01-05T19:30:39.039Z,9.50
2023-01-05T19:33:08.001Z,9.47
2023-01-05T19:35:36.999Z,9.43
2023-01-05T19:38:05.719Z,9.41
2023-01-05T19:40:36.748Z,9.40
2023-01-05T19:43:05.613Z,9.39
2023-01-05T19:45:35.707Z,9.40
2023-01-05T19:48:04.827Z,9.38
2023-01-05T19:50:33.477Z,9.36
2023-01-05T19:53:02.954Z,9.34
2023-01-05T19:55:32.019Z,9.31
2023-01-05T19:58:02.141Z,9.28
2023-01-05T20:00:30.895Z,9.24
2023-01-05T20:02:59.683Z,9.21
2023-01-05T20:05:28.610Z,9.18
2023-01-05T20:07:57.260Z,9.15
2023-01-05T20:10:26.047Z,9.13
2023-01-05T20:12:54.674Z,9.09
2023-01-05T20:15:25.047Z,9.07
2023-01-05T20:17:53.864Z,9.05
2023-01-05T20:20:22.544Z,9.00
2023-01-05T20:22:51.355Z,8.95
2023-01-05T20:25:20.281Z,8.88
2023-01-05T20:27:49.286Z,8.79
2023-01-05T20:30:18.352Z,8.71
2023-01-05T20:32:48.943Z,8.66
2023-01-05T20:35:17.832Z,8.59
2023-01-05T20:37:46.492Z,8.58
2023-01-05T20:40:15.317Z,8.57
2023-01-05T20:42:43.985Z,8.57
2023-01-05T20:45:14.599Z,8.55
2023-01-05T20:47:47.784Z,8.52
2023-01-05T20:50:18.617Z,8.53
2023-01-05T20:52:47.419Z,8.54
2023-01-05T20:55:18.752Z,8.53
2023-01-05T20:57:48.314Z,8.51
2023-01-05T21:00:18.639Z,8.52
2023-01-05T21:02:49.756Z,8.54
2023-01-05T21:05:20.001Z,8.57
2023-01-05T21:07:49.021Z,8.52
2023-01-05T21:10:17.817Z,8.59
2023-01-05T21:12:46.661Z,8.59
2023-01-05T21:15:15.345Z,8.62
2023-01-05T21:17:44.546Z,8.64
2023-01-05T21:20:13.291Z,8.64
2023-01-05T21:22:43.596Z,8.64
2023-01-05T21:25:14.851Z,8.63
2023-01-05T21:27:44.438Z,8.64
2023-01-05T21:30:14.609Z,8.65
2023-01-05T21:32:43.401Z,8.64
2023-01-05T21:35:12.042Z,8.66
2023-01-05T21:37:40.772Z,8.65
2023-01-05T21:40:12.883Z,8.61
2023-01-05T21:42:40.685Z,8.54
2023-01-05T21:45:11.691Z,8.52
2023-01-05T21:47:40.755Z,8.53
2023-01-05T21:50:10.510Z,8.51
2023-01-05T21:52:49.281Z,8.47
2023-01-05T21:55:29.634Z,8.50
2023-01-05T21:57:58.564Z,8.46
2023-01-05T22:00:27.397Z,8.41
2023-01-05T22:02:56.188Z,8.39
2023-01-05T22:05:24.960Z,8.37
2023-01-05T22:07:53.788Z,8.32
2023-01-05T22:10:23.943Z,8.21
2023-01-05T22:12:53.881Z,8.26
2023-01-05T22:15:23.869Z,8.33
2023-01-05T22:17:52.599Z,8.37
2023-01-05T22:20:21.418Z,8.40
2023-01-05T22:22:50.147Z,8.44
2023-01-05T22:25:18.997Z,8.46
2023-01-05T22:27:49.055Z,8.47
2023-01-05T22:30:18.471Z,8.52
2023-01-05T22:32:49.122Z,8.54
2023-01-05T22:35:18.040Z,8.56
2023-01-05T22:37:46.743Z,8.57
2023-01-05T22:40:15.714Z,8.58
2023-01-05T22:42:44.391Z,8.57
2023-01-05T22:45:14.818Z,8.45
2023-01-05T22:47:43.498Z,8.53
2023-01-05T22:50:12.365Z,8.52
2023-01-05T22:52:41.198Z,8.53
2023-01-05T22:55:10.713Z,8.55
2023-01-05T22:57:40.089Z,8.54
2023-01-05T23:00:09.730Z,8.55
2023-01-05T23:02:39.624Z,8.58
2023-01-05T23:05:09.784Z,8.57
2023-01-05T23:07:38.563Z,8.57
2023-01-05T23:10:08.494Z,8.57
2023-01-05T23:12:38.160Z,8.56
2023-01-05T23:15:07.736Z,8.57
2023-01-05T23:17:36.213Z,8.56
2023-01-05T23:20:07.433Z,8.54
2023-01-05T23:22:36.261Z,8.55
2023-01-05T23:25:05.401Z,8.55
2023-01-05T23:27:34.119Z,8.55
2023-01-05T23:30:03.802Z,8.54
2023-01-05T23:32:32.592Z,8.52
2023-01-05T23:35:02.252Z,8.45
2023-01-05T23:37:32.841Z,8.45
2023-01-05T23:40:01.899Z,8.41
2023-01-05T23:42:40.532Z,8.40
2023-01-05T23:45:10.833Z,8.37
2023-01-05T23:47:39.631Z,8.36
2023-01-05T23:50:09.539Z,8.36
2023-01-05T23:52:39.872Z,8.35
2023-01-05T23:55:10.066Z,8.36
2023-01-05T23:57:38.896Z,8.37
